createdAt,value
2019-03-19T00:01:40.549Z,1.90
2019-03-19T00:04:12.817Z,1.81
2019-03-19T00:06:42.968Z,1.80
2019-03-19T00:09:12.532Z,1.55
2019-03-19T00:11:42.855Z,1.41
2019-03-19T00:14:12.548Z,1.25
2019-03-19T00:16:43.322Z,1.07
2019-03-19T00:19:12.749Z,1.04
2019-03-19T00:21:42.255Z,0.98
2019-03-19T00:27:17.228Z,0.81
2019-03-19T00:29:48.099Z,0.76
2019-03-19T00:32:18.124Z,0.73
2019-03-19T00:34:47.765Z,0.62
2019-03-19T00:37:17.269Z,0.57
2019-03-19T00:39:47.009Z,0.52
2019-03-19T00:42:16.598Z,0.55
2019-03-19T00:44:47.110Z,0.69
2019-03-19T00:47:16.574Z,0.71
2019-03-19T00:49:46.129Z,0.85
2019-03-19T00:52:15.980Z,1.15
2019-03-19T00:54:46.905Z,1.28
2019-03-19T00:57:16.409Z,1.31
2019-03-19T00:59:46.518Z,1.32
2019-03-19T01:02:16.438Z,1.29
2019-03-19T01:04:45.891Z,1.26
2019-03-19T01:07:15.959Z,1.08
2019-03-19T01:09:45.431Z,0.89
2019-03-19T01:12:14.957Z,0.79
2019-03-19T01:14:44.950Z,0.66
2019-03-19T01:17:14.357Z,0.55
2019-03-19T01:19:43.849Z,0.48
2019-03-19T01:22:13.287Z,0.25
2019-03-19T01:24:42.936Z,0.18
2019-03-19T01:27:12.331Z,0.13
2019-03-19T01:29:41.830Z,0.10
2019-03-19T01:32:11.283Z,0.11
2019-03-19T01:34:40.886Z,0.12
2019-03-19T01:37:10.435Z,0.15
2019-03-19T01:39:39.893Z,0.12
2019-03-19T01:42:09.373Z,-0.32
2019-03-19T01:44:38.907Z,0.00
2019-03-19T01:47:08.429Z,-0.10
2019-03-19T01:49:37.842Z,-0.06
2019-03-19T01:52:07.327Z,-0.05
2019-03-19T01:54:36.540Z,-0.01
2019-03-19T01:57:05.779Z,-0.02
2019-03-19T01:59:35.310Z,-0.02
2019-03-19T02:02:04.827Z,-0.08
2019-03-19T02:04:34.460Z,-0.10
2019-03-19T02:07:03.717Z,-0.13
2019-03-19T02:09:33.280Z,-0.12
2019-03-19T02:12:02.522Z,-0.20
2019-03-19T02:14:32.105Z,-0.23
2019-03-19T02:17:01.326Z,-0.28
2019-03-19T02:19:30.859Z,-0.30
2019-03-19T02:22:00.117Z,-0.24
2019-03-19T02:24:29.675Z,-0.32
2019-03-19T02:26:58.924Z,-0.28
2019-03-19T02:29:28.189Z,-0.33
2019-03-19T02:31:57.434Z,-0.49
2019-03-19T02:34:26.759Z,-0.44
2019-03-19T02:36:56.030Z,-0.45
2019-03-19T02:39:25.297Z,-0.40
2019-03-19T02:41:54.617Z,-0.38
2019-03-19T02:44:24.150Z,-0.45
2019-03-19T02:46:53.688Z,-0.38
2019-03-19T02:49:22.953Z,-0.39
2019-03-19T02:51:52.263Z,-0.33
2019-03-19T02:54:21.479Z,-0.35
2019-03-19T02:56:50.784Z,-0.35
2019-03-19T02:59:20.104Z,-0.29
2019-03-19T03:01:49.371Z,-0.35
2019-03-19T03:04:18.583Z,-0.41
2019-03-19T03:06:47.833Z,-0.41
2019-03-19T03:09:17.282Z,-0.50
2019-03-19T03:11:46.569Z,-0.56
2019-03-19T03:14:15.812Z,-0.56
2019-03-19T03:16:45.100Z,-0.52
2019-03-19T03:19:14.344Z,-0.44
2019-03-19T03:21:43.882Z,-0.48
2019-03-19T03:24:13.126Z,-0.53
2019-03-19T03:26:48.204Z,-0.49
2019-03-19T03:29:13.366Z,-0.56
2019-03-19T03:31:42.686Z,-0.59
2019-03-19T03:34:11.945Z,-0.55
2019-03-19T03:36:41.161Z,-0.59
2019-03-19T03:39:10.400Z,-0.54
2019-03-19T03:41:39.667Z,-0.56
2019-03-19T03:44:08.930Z,-0.56
2019-03-19T03:46:38.230Z,-0.61
2019-03-19T03:49:07.529Z,-0.62
2019-03-19T03:51:36.761Z,-0.61
2019-03-19T03:54:06.079Z,-0.67
2019-03-19T03:56:35.624Z,-0.74
2019-03-19T03:59:04.891Z,-0.80
2019-03-19T04:01:34.490Z,-0.73
2019-03-19T04:04:03.717Z,-0.70
2019-03-19T04:06:33.268Z,-0.84
2019-03-19T04:09:02.556Z,-0.86
2019-03-19T04:11:31.778Z,-0.81
2019-03-19T04:14:01.029Z,-0.75
2019-03-19T04:16:30.261Z,-0.84
2019-03-19T04:18:59.490Z,-0.90
2019-03-19T04:21:28.792Z,-0.88
2019-03-19T04:23:58.322Z,-0.84
2019-03-19T04:26:27.648Z,-0.76
2019-03-19T04:28:57.196Z,-0.82
2019-03-19T04:31:26.432Z,-0.91
2019-03-19T04:33:55.698Z,-0.95
2019-03-19T04:36:24.925Z,-0.98
2019-03-19T04:38:54.247Z,-0.96
2019-03-19T04:41:23.793Z,-0.91
2019-03-19T04:43:53.069Z,-0.86
2019-03-19T04:46:22.541Z,-0.87
2019-03-19T04:48:52.098Z,-0.88
2019-03-19T04:51:21.592Z,-0.87
2019-03-19T04:53:50.972Z,-0.90
2019-03-19T04:56:20.197Z,-1.00
2019-03-19T04:58:49.440Z,-0.96
2019-03-19T05:01:18.951Z,-1.02
2019-03-19T05:03:48.215Z,-1.02
2019-03-19T05:06:17.747Z,-1.01
2019-03-19T05:08:47.286Z,-1.10
2019-03-19T05:11:16.509Z,-1.18
2019-03-19T05:19:29.620Z,-1.17
2019-03-19T05:25:13.167Z,-1.19
2019-03-19T05:27:42.870Z,-1.11
2019-03-19T05:30:12.943Z,-1.18
2019-03-19T05:32:42.445Z,-1.17
2019-03-19T05:35:12.254Z,-1.16
2019-03-19T05:37:41.493Z,-1.13
2019-03-19T05:40:11.240Z,-1.14
2019-03-19T05:42:40.746Z,-1.20
2019-03-19T05:45:10.943Z,-1.19
2019-03-19T05:47:40.658Z,-1.20
2019-03-19T05:50:11.541Z,-1.31
2019-03-19T05:52:40.761Z,-1.27
2019-03-19T05:55:10.063Z,-1.25
2019-03-19T05:57:48.727Z,-1.21
2019-03-19T06:00:12.055Z,-1.09
2019-03-19T06:02:41.235Z,-1.05
2019-03-19T06:05:11.630Z,-0.98
2019-03-19T06:07:40.879Z,-0.99
2019-03-19T06:10:10.605Z,-1.02
2019-03-19T06:12:39.827Z,-0.97
2019-03-19T06:15:09.305Z,-0.97
2019-03-19T06:17:38.574Z,-0.92
2019-03-19T06:20:08.644Z,-0.84
2019-03-19T06:22:37.922Z,-0.78
2019-03-19T06:25:08.127Z,-0.67
2019-03-19T06:27:37.394Z,-0.54
2019-03-19T06:30:09.104Z,-0.46
2019-03-19T06:32:38.399Z,-0.30
2019-03-19T06:35:08.961Z,-0.31
2019-03-19T06:37:38.211Z,-0.30
2019-03-19T06:40:08.678Z,-0.21
2019-03-19T06:42:37.988Z,-0.15
2019-03-19T06:45:08.577Z,-0.09
2019-03-19T06:47:38.115Z,0.04
2019-03-19T06:50:08.663Z,0.10
2019-03-19T06:52:37.914Z,0.19
2019-03-19T06:55:08.969Z,0.26
2019-03-19T06:57:39.348Z,0.42
2019-03-19T07:00:12.831Z,0.54
2019-03-19T07:02:42.625Z,0.68
2019-03-19T07:05:12.164Z,0.84
2019-03-19T07:07:41.757Z,1.02
2019-03-19T07:10:12.066Z,1.12
2019-03-19T07:12:41.280Z,1.19
2019-03-19T07:15:12.283Z,1.34
2019-03-19T07:17:41.798Z,1.44
2019-03-19T07:20:12.869Z,1.53
2019-03-19T07:22:42.434Z,1.71
2019-03-19T07:28:07.467Z,2.05
2019-03-19T07:30:37.231Z,2.29
2019-03-19T07:33:06.475Z,2.34
2019-03-19T07:35:35.997Z,2.52
2019-03-19T07:38:05.231Z,2.64
2019-03-19T07:40:34.799Z,2.79
2019-03-19T07:43:04.042Z,2.87
2019-03-19T07:45:33.338Z,3.04
2019-03-19T07:48:02.633Z,3.10
2019-03-19T07:50:32.143Z,3.14
2019-03-19T07:53:01.393Z,3.37
2019-03-19T07:55:30.663Z,3.61
2019-03-19T07:58:00.141Z,3.67
2019-03-19T08:00:29.401Z,3.78
2019-03-19T08:02:58.917Z,3.92
2019-03-19T08:05:32.919Z,4.07
2019-03-19T08:07:59.514Z,4.18
2019-03-19T08:10:28.773Z,4.36
2019-03-19T08:12:58.294Z,4.55
2019-03-19T08:15:27.829Z,4.74
2019-03-19T08:17:57.328Z,4.67
2019-03-19T08:20:45.534Z,4.86
2019-03-19T08:23:14.791Z,5.01
2019-03-19T08:25:44.062Z,5.05
2019-03-19T08:28:13.591Z,5.25
2019-03-19T08:30:42.822Z,5.34
2019-03-19T08:33:12.067Z,5.49
2019-03-19T08:35:41.566Z,5.60
2019-03-19T08:38:10.813Z,5.64
2019-03-19T08:40:40.050Z,5.45
2019-03-19T08:43:09.596Z,5.57
2019-03-19T08:45:38.836Z,5.64
2019-03-19T08:48:08.100Z,5.76
2019-03-19T08:50:37.337Z,5.80
2019-03-19T08:53:06.575Z,5.73
2019-03-19T08:55:35.819Z,5.84
2019-03-19T08:58:05.440Z,5.88
2019-03-19T09:00:35.063Z,5.96
2019-03-19T09:03:04.455Z,5.92
2019-03-19T09:05:33.703Z,5.90
2019-03-19T09:08:22.549Z,6.02
2019-03-19T09:11:04.366Z,6.02
2019-03-19T09:13:33.983Z,6.04
2019-03-19T09:16:03.222Z,6.13
2019-03-19T09:18:32.493Z,6.18
2019-03-19T09:21:02.004Z,6.14
2019-03-19T09:23:33.259Z,6.07
2019-03-19T09:26:02.584Z,6.17
2019-03-19T09:28:32.109Z,6.19
2019-03-19T09:31:01.323Z,6.32
2019-03-19T09:33:30.852Z,6.40
2019-03-19T09:36:00.332Z,6.47
2019-03-19T09:38:29.595Z,6.67
2019-03-19T09:40:58.868Z,6.76
2019-03-19T09:43:28.165Z,6.57
2019-03-19T09:45:57.768Z,6.44
2019-03-19T09:48:28.278Z,6.41
2019-03-19T09:50:58.352Z,6.74
2019-03-19T09:53:27.602Z,6.96
2019-03-19T09:55:56.863Z,6.98
2019-03-19T09:58:26.094Z,6.93
2019-03-19T10:00:55.711Z,7.06
2019-03-19T10:03:25.260Z,7.19
2019-03-19T10:05:54.817Z,7.18
2019-03-19T10:08:24.119Z,7.23
2019-03-19T10:10:53.398Z,7.38
2019-03-19T10:13:22.905Z,7.43
2019-03-19T10:15:52.522Z,7.24
2019-03-19T10:18:21.803Z,7.31
2019-03-19T10:20:51.044Z,7.31
2019-03-19T10:23:20.337Z,7.14
2019-03-19T10:25:50.124Z,7.01
2019-03-19T10:28:19.353Z,7.26
2019-03-19T10:30:48.617Z,7.50
2019-03-19T10:33:18.118Z,7.58
2019-03-19T10:35:47.444Z,7.76
2019-03-19T10:38:16.682Z,7.83
2019-03-19T10:40:45.913Z,7.79
2019-03-19T10:43:15.158Z,7.73
2019-03-19T10:45:44.384Z,7.74
2019-03-19T10:48:13.965Z,7.80
2019-03-19T10:50:43.624Z,7.84
2019-03-19T10:53:13.117Z,7.84
2019-03-19T10:55:42.416Z,8.17
2019-03-19T10:58:11.660Z,8.03
2019-03-19T11:00:40.971Z,7.73
2019-03-19T11:03:10.195Z,7.77
2019-03-19T11:05:39.444Z,8.10
2019-03-19T11:08:09.123Z,7.99
2019-03-19T11:10:38.664Z,8.15
2019-03-19T11:13:08.451Z,8.23
2019-03-19T11:15:37.698Z,8.37
2019-03-19T11:18:07.048Z,8.31
2019-03-19T11:20:36.310Z,8.39
2019-03-19T11:23:05.651Z,8.53
2019-03-19T11:25:34.974Z,8.57
2019-03-19T11:28:04.476Z,8.65
2019-03-19T11:30:33.721Z,8.36
2019-03-19T11:33:02.950Z,8.41
2019-03-19T11:35:32.272Z,8.28
2019-03-19T11:38:01.498Z,8.40
2019-03-19T11:40:30.830Z,8.47
2019-03-19T11:43:00.398Z,8.33
2019-03-19T11:45:29.664Z,8.53
2019-03-19T11:47:59.171Z,8.69
2019-03-19T11:50:29.085Z,8.85
2019-03-19T11:52:58.401Z,8.71
2019-03-19T11:55:27.967Z,8.75
2019-03-19T11:57:57.701Z,8.80
2019-03-19T12:00:34.055Z,9.01
2019-03-19T12:03:12.632Z,9.16
2019-03-19T12:05:34.260Z,8.97
2019-03-19T12:08:03.495Z,9.07
2019-03-19T12:10:32.754Z,8.95
2019-03-19T12:13:01.977Z,9.00
2019-03-19T12:15:31.224Z,9.06
2019-03-19T12:18:00.447Z,9.10
2019-03-19T12:20:29.699Z,9.24
2019-03-19T12:22:58.917Z,9.38
2019-03-19T12:25:28.187Z,9.42
2019-03-19T12:27:57.433Z,9.49
2019-03-19T12:30:26.746Z,9.59
2019-03-19T12:32:56.065Z,9.84
2019-03-19T12:35:25.322Z,9.86
2019-03-19T12:37:54.747Z,9.95
2019-03-19T12:40:24.227Z,9.90
2019-03-19T12:45:51.373Z,10.06
2019-03-19T12:48:20.974Z,10.16
2019-03-19T12:50:50.454Z,10.07
2019-03-19T12:53:19.813Z,9.94
2019-03-19T12:55:49.355Z,10.23
2019-03-19T12:58:18.703Z,10.19
2019-03-19T13:00:47.962Z,10.25
2019-03-19T13:03:17.440Z,10.34
2019-03-19T13:05:47.012Z,10.40
2019-03-19T13:10:55.429Z,10.53
2019-03-19T13:13:46.943Z,11.00
2019-03-19T13:16:16.574Z,11.07
2019-03-19T13:18:47.216Z,11.30
2019-03-19T13:21:19.636Z,11.12
2019-03-19T13:23:50.868Z,11.41
2019-03-19T13:26:40.817Z,12.19
2019-03-19T13:29:10.683Z,12.97
2019-03-19T13:31:40.809Z,13.31
2019-03-19T13:34:17.764Z,13.82
2019-03-19T13:36:47.086Z,14.70
2019-03-19T13:39:16.642Z,14.46
2019-03-19T13:41:45.945Z,14.24
2019-03-19T13:44:15.277Z,14.49
2019-03-19T13:46:44.577Z,15.26
2019-03-19T13:49:33.236Z,15.34
2019-03-19T13:52:02.458Z,14.90
2019-03-19T13:54:31.972Z,15.06
2019-03-19T13:57:01.197Z,14.45
2019-03-19T13:59:30.818Z,15.54
2019-03-19T14:02:00.122Z,16.57
2019-03-19T14:04:29.478Z,16.80
2019-03-19T14:06:58.742Z,15.98
2019-03-19T14:09:27.996Z,15.79
2019-03-19T14:11:57.250Z,16.30
2019-03-19T14:14:26.826Z,16.32
2019-03-19T14:16:56.344Z,16.75
2019-03-19T14:19:25.603Z,16.36
2019-03-19T14:21:54.849Z,16.11
2019-03-19T14:24:24.294Z,15.82
2019-03-19T14:26:53.576Z,15.65
2019-03-19T14:29:23.150Z,15.51
2019-03-19T14:31:52.374Z,15.70
2019-03-19T14:34:21.723Z,15.63
2019-03-19T14:36:50.965Z,17.07
2019-03-19T14:39:20.229Z,17.19
2019-03-19T14:41:49.512Z,16.72
2019-03-19T14:44:18.999Z,15.84
2019-03-19T14:46:48.286Z,16.02
2019-03-19T14:49:17.877Z,15.81
2019-03-19T14:51:47.382Z,16.48
2019-03-19T14:54:17.347Z,17.71
2019-03-19T14:56:46.574Z,18.92
2019-03-19T14:59:16.187Z,19.35
2019-03-19T15:01:45.453Z,17.59
2019-03-19T15:04:14.981Z,16.56
2019-03-19T15:06:44.538Z,16.91
2019-03-19T15:09:13.901Z,17.27
2019-03-19T15:11:43.400Z,17.44
2019-03-19T15:14:31.742Z,17.24
2019-03-19T15:17:05.104Z,16.96
2019-03-19T15:19:31.941Z,16.81
2019-03-19T15:22:31.946Z,16.57
2019-03-19T15:24:51.972Z,16.94
2019-03-19T15:27:21.259Z,16.76
2019-03-19T15:29:50.852Z,16.62
2019-03-19T15:32:20.135Z,17.17
2019-03-19T15:34:49.721Z,15.99
2019-03-19T15:37:19.012Z,15.64
2019-03-19T15:39:48.297Z,15.24
2019-03-19T15:42:18.063Z,15.18
2019-03-19T15:47:42.574Z,15.61
2019-03-19T15:50:13.839Z,15.47
2019-03-19T15:52:43.075Z,15.77
2019-03-19T15:58:08.092Z,15.22
2019-03-19T16:00:37.642Z,15.34
2019-03-19T16:03:06.901Z,14.53
2019-03-19T16:05:36.152Z,14.65
2019-03-19T16:08:05.673Z,13.67
2019-03-19T16:10:35.198Z,12.98
2019-03-19T16:13:04.746Z,12.68
2019-03-19T16:15:34.066Z,13.08
2019-03-19T16:18:03.722Z,12.76
2019-03-19T16:20:33.376Z,12.42
2019-03-19T16:23:02.642Z,11.96
2019-03-19T16:25:31.995Z,11.57
2019-03-19T16:28:01.300Z,11.40
2019-03-19T16:30:30.627Z,11.25
2019-03-19T16:32:59.978Z,11.10
2019-03-19T16:35:29.314Z,11.00
2019-03-19T16:37:58.582Z,10.94
2019-03-19T16:40:27.917Z,10.84
2019-03-19T16:42:57.341Z,10.81
2019-03-19T16:45:26.705Z,10.78
2019-03-19T16:47:56.043Z,10.74
2019-03-19T16:50:25.649Z,10.63
2019-03-19T16:52:54.903Z,10.57
2019-03-19T16:55:24.223Z,10.49
2019-03-19T16:57:53.453Z,10.40
2019-03-19T17:00:22.834Z,10.37
2019-03-19T17:02:52.135Z,10.33
2019-03-19T17:05:21.480Z,10.26
2019-03-19T17:07:51.082Z,10.25
2019-03-19T17:10:20.431Z,10.22
2019-03-19T17:12:49.784Z,10.16
2019-03-19T17:15:19.085Z,10.18
2019-03-19T17:17:48.332Z,10.19
2019-03-19T17:20:17.638Z,10.14
2019-03-19T17:22:47.598Z,10.08
2019-03-19T17:25:17.632Z,10.02
2019-03-19T17:27:47.243Z,9.93
2019-03-19T17:30:35.719Z,9.94
2019-03-19T17:33:05.050Z,9.93
2019-03-19T17:35:34.913Z,9.88
2019-03-19T17:38:04.347Z,9.80
2019-03-19T17:40:41.227Z,9.66
2019-03-19T17:43:04.701Z,9.60
2019-03-19T17:45:33.940Z,9.54
2019-03-19T17:48:03.191Z,9.49
2019-03-19T17:50:32.550Z,9.17
2019-03-19T17:53:01.831Z,9.02
2019-03-19T17:55:31.420Z,8.99
2019-03-19T17:58:00.874Z,8.70
2019-03-19T18:00:30.462Z,8.60
2019-03-19T18:03:00.018Z,8.52
2019-03-19T18:05:29.266Z,8.39
2019-03-19T18:07:58.568Z,8.59
2019-03-19T18:10:27.876Z,8.56
2019-03-19T18:13:16.187Z,8.36
2019-03-19T18:15:45.409Z,8.12
2019-03-19T18:18:33.756Z,7.92
2019-03-19T18:21:03.519Z,7.76
2019-03-19T18:23:33.029Z,7.62
2019-03-19T18:26:02.307Z,7.50
2019-03-19T18:28:32.183Z,7.38
2019-03-19T18:31:02.161Z,7.27
2019-03-19T18:33:50.450Z,7.19
2019-03-19T18:36:19.904Z,7.12
2019-03-19T18:38:49.791Z,7.01
2019-03-19T18:41:19.525Z,6.93
2019-03-19T18:43:51.349Z,6.97
2019-03-19T18:46:39.727Z,6.82
2019-03-19T18:49:09.093Z,6.67
2019-03-19T18:51:38.416Z,6.63
2019-03-19T18:54:09.495Z,6.52
2019-03-19T18:56:38.769Z,6.51
2019-03-19T18:59:08.085Z,6.41
2019-03-19T19:01:40.341Z,6.42
2019-03-19T19:04:29.130Z,6.24
2019-03-19T19:07:38.163Z,6.25
2019-03-19T19:10:08.520Z,6.17
2019-03-19T19:15:47.282Z,5.98
2019-03-19T19:18:17.246Z,5.94
2019-03-19T19:20:47.213Z,5.91
2019-03-19T19:23:16.956Z,5.87
2019-03-19T19:25:47.831Z,5.66
2019-03-19T19:28:36.272Z,5.75
2019-03-19T19:33:56.819Z,5.61
2019-03-19T19:39:35.784Z,5.50
2019-03-19T19:42:08.437Z,5.56
2019-03-19T19:44:38.423Z,5.51
2019-03-19T19:47:07.935Z,5.39
2019-03-19T19:49:39.394Z,5.30
2019-03-19T19:52:28.470Z,5.26
2019-03-19T19:54:58.080Z,5.36
2019-03-19T19:57:27.658Z,5.25
2019-03-19T20:00:14.878Z,5.11
2019-03-19T20:02:44.568Z,5.04
2019-03-19T20:05:34.155Z,5.02
2019-03-19T20:08:23.828Z,4.96
2019-03-19T20:10:53.262Z,4.87
2019-03-19T20:13:23.384Z,4.76
2019-03-19T20:15:53.219Z,4.78
2019-03-19T20:21:32.334Z,4.74
2019-03-19T20:24:02.025Z,4.69
2019-03-19T20:26:31.917Z,4.60
2019-03-19T20:29:01.771Z,4.62
2019-03-19T20:31:31.787Z,4.55
2019-03-19T20:34:01.478Z,4.57
2019-03-19T20:36:31.397Z,4.46
2019-03-19T20:39:00.926Z,4.46
2019-03-19T20:41:30.817Z,4.37
2019-03-19T20:44:00.077Z,4.29
2019-03-19T20:46:29.361Z,4.28
2019-03-19T20:48:58.603Z,4.28
2019-03-19T20:51:28.162Z,4.29
2019-03-19T20:53:57.407Z,4.30
2019-03-19T20:56:27.058Z,4.33
2019-03-19T20:58:56.646Z,4.27
2019-03-19T21:01:25.909Z,4.19
2019-03-19T21:03:55.780Z,4.17
2019-03-19T21:06:25.305Z,4.20
2019-03-19T21:08:54.657Z,4.19
2019-03-19T21:11:24.067Z,4.17
2019-03-19T21:13:53.632Z,4.07
2019-03-19T21:16:23.177Z,3.94
2019-03-19T21:18:52.469Z,3.91
2019-03-19T21:21:22.072Z,3.81
2019-03-19T21:23:51.414Z,3.72
2019-03-19T21:26:21.000Z,3.68
2019-03-19T21:28:50.545Z,3.65
2019-03-19T21:31:39.220Z,3.59
2019-03-19T21:34:08.600Z,3.58
2019-03-19T21:36:37.874Z,3.53
2019-03-19T21:39:08.366Z,3.50
2019-03-19T21:41:37.680Z,3.53
2019-03-19T21:44:07.335Z,3.42
2019-03-19T21:46:36.737Z,3.48
2019-03-19T21:49:06.006Z,3.38
2019-03-19T21:51:35.539Z,3.37
2019-03-19T21:54:04.830Z,3.33
2019-03-19T21:56:34.100Z,3.28
2019-03-19T21:59:03.393Z,3.27
2019-03-19T22:01:33.009Z,3.25
2019-03-19T22:04:03.549Z,3.20
2019-03-19T22:06:33.956Z,3.17
2019-03-19T22:09:23.948Z,3.14
2019-03-19T22:11:53.202Z,3.10
2019-03-19T22:14:22.452Z,3.10
2019-03-19T22:16:51.717Z,3.10
2019-03-19T22:19:20.968Z,3.09
2019-03-19T22:21:50.561Z,2.93
2019-03-19T22:24:19.826Z,2.87
2019-03-19T22:26:49.122Z,2.89
2019-03-19T22:29:18.376Z,2.90
2019-03-19T22:31:47.911Z,2.82
2019-03-19T22:34:17.177Z,2.81
2019-03-19T22:36:46.881Z,2.78
2019-03-19T22:39:16.491Z,2.75
2019-03-19T22:41:45.764Z,2.64
2019-03-19T22:44:15.439Z,2.63
2019-03-19T22:46:44.712Z,2.49
2019-03-19T22:49:13.990Z,2.54
2019-03-19T22:51:43.295Z,2.49
2019-03-19T22:54:12.902Z,2.44
2019-03-19T22:56:42.186Z,2.48
2019-03-19T22:59:11.879Z,2.39
2019-03-19T23:01:41.230Z,2.35
2019-03-19T23:04:10.637Z,2.34
2019-03-19T23:06:39.935Z,2.35
2019-03-19T23:09:09.629Z,2.35
2019-03-19T23:11:38.947Z,2.36
2019-03-19T23:14:08.675Z,2.40
2019-03-19T23:16:38.369Z,2.01
2019-03-19T23:19:07.651Z,2.31
2019-03-19T23:21:36.927Z,2.31
2019-03-19T23:24:45.616Z,2.25
2019-03-19T23:27:14.915Z,2.21
2019-03-19T23:29:44.219Z,2.02
2019-03-19T23:32:13.523Z,2.16
2019-03-19T23:34:42.895Z,2.12
2019-03-19T23:37:12.124Z,2.14
2019-03-19T23:39:41.425Z,2.11
2019-03-19T23:42:10.914Z,2.12
2019-03-19T23:44:40.219Z,2.04
2019-03-19T23:47:09.486Z,2.04
2019-03-19T23:49:38.791Z,2.06
2019-03-19T23:52:08.348Z,2.01
2019-03-19T23:54:37.932Z,1.98
2019-03-19T23:57:07.233Z,1.92
2019-03-19T23:59:36.577Z,1.88
